Rome, NY (13441)

7:31 PM EST on November 28, 2014 (GMT -0500)
CNYWeather.com | Change Station
CLOSE
Current Station
Personal Weather Station
Location: Westmoreland, NY
Elevation: 565 ft
Nearby Weather Stations
Active Advisory: Lake Effect Snow Advisory

Elev 565 ft 43.16 °N, 75.46 °W | Updated 22 seconds ago

Overcast
Overcast
22.9 °F
Feels Like 18 °F
N
3.5
Wind Variable Wind from West
Gusts 5.0 mph

Today
High -- | Low -- °F
--% Chance of Precip.
Yesterday
High -- | Low -- °F
Precip. -- in
7:10 AM 4:28 PM
Waxing Crescent, 45% visible
Pressure 30.25 in
Visibility 10.0 miles
Clouds Mostly Cloudy 3100 ft
Overcast 5000 ft
Windchill 18 °F
Dew Point 17 °F
Humidity 77%
Rainfall 0.09 in
Snow Depth Not available.
UV 0.0 out of 12
Pollen .10 out of 12
Air Quality Not available.
Flu Activity Not available.
METAR KRME 282353Z 31004KT 10SM BKN031 OVC050 M06/M08 A3023 RMK AO2 SLP243 60000 T10561083 11033 21056 53010

More Conditions Fewer Conditions

Pressure 30.25 in
Visibility 10.0 miles
Clouds Mostly Cloudy 3100 ft
Overcast 5000 ft
Windchill 18 °F
Dew Point 17 °F
Humidity 77%
Rainfall 0.09 in
Snow Depth Not available.
UV 0.0 out of 12
Pollen .10 out of 12
Air Quality Not available.
Flu Activity Not available.
METAR KRME 282353Z 31004KT 10SM BKN031 OVC050 M06/M08 A3023 RMK AO2 SLP243 60000 T10561083 11033 21056 53010

More Conditions Fewer Conditions

10-Day Weather Forecast

Almanac

Astronomy

Nov. 28, 2014 Rise Set
Actual Time
Civil Twilight
Nautical Twilight
Astronomical Twilight
Moon
Length of Visible Light
Length of Day
Tomorrow will be .
, % of the Moon is Illuminated

Today's Extremes

State Highs State Lows

Community

WunderPhotos

Upload Photos

1,774,344 photos uploaded!

WunderBlogs® & News

Nearby

Air Quality

  Air Quality AQ Index Pollutant
Not available.

Snow Depth

Station Depth Elevation

Earthquake Activity

City Distance Mag. Time & Date
Minimum magnitude displayed is 2.5.

Coastal Water Temperatures

Place Temperature

Nearby Weather Stations